sensor_id;sensor_type;location;lat;lon;timestamp;P1;durP1;ratioP1;P2;durP2;ratioP2
25707;SDS011;13567;61.652;17.100;2022-10-23T00:01:27;17.17;;;7.70;;
25707;SDS011;13567;61.652;17.100;2022-10-23T00:03:57;15.23;;;7.17;;
25707;SDS011;13567;61.652;17.100;2022-10-23T00:06:26;14.83;;;6.30;;
25707;SDS011;13567;61.652;17.100;2022-10-23T00:08:54;15.47;;;6.90;;
25707;SDS011;13567;61.652;17.100;2022-10-23T00:11:26;14.10;;;6.37;;
25707;SDS011;13567;61.652;17.100;2022-10-23T00:13:59;13.93;;;5.80;;
25707;SDS011;13567;61.652;17.100;2022-10-23T00:16:27;13.77;;;5.33;;
25707;SDS011;13567;61.652;17.100;2022-10-23T00:18:55;13.60;;;5.47;;
25707;SDS011;13567;61.652;17.100;2022-10-23T00:21:23;13.03;;;4.97;;
25707;SDS011;13567;61.652;17.100;2022-10-23T00:23:50;13.63;;;5.37;;
25707;SDS011;13567;61.652;17.100;2022-10-23T00:26:17;13.50;;;5.77;;
25707;SDS011;13567;61.652;17.100;2022-10-23T00:28:46;13.37;;;5.93;;
25707;SDS011;13567;61.652;17.100;2022-10-23T00:31:19;12.90;;;5.00;;
25707;SDS011;13567;61.652;17.100;2022-10-23T00:33:47;14.37;;;5.97;;
25707;SDS011;13567;61.652;17.100;2022-10-23T00:36:15;13.97;;;6.10;;
25707;SDS011;13567;61.652;17.100;2022-10-23T00:38:43;12.93;;;5.27;;
25707;SDS011;13567;61.652;17.100;2022-10-23T00:41:17;13.77;;;5.03;;
25707;SDS011;13567;61.652;17.100;2022-10-23T00:43:58;11.67;;;3.97;;
25707;SDS011;13567;61.652;17.100;2022-10-23T00:46:43;10.47;;;4.00;;
25707;SDS011;13567;61.652;17.100;2022-10-23T00:49:11;11.60;;;4.27;;
25707;SDS011;13567;61.652;17.100;2022-10-23T00:51:41;12.90;;;4.20;;
25707;SDS011;13567;61.652;17.100;2022-10-23T00:54:11;9.30;;;3.37;;
25707;SDS011;13567;61.652;17.100;2022-10-23T00:56:58;8.70;;;3.20;;
25707;SDS011;13567;61.652;17.100;2022-10-23T00:59:28;9.70;;;3.00;;
25707;SDS011;13567;61.652;17.100;2022-10-23T01:01:55;8.43;;;3.00;;
25707;SDS011;13567;61.652;17.100;2022-10-23T01:04:24;8.60;;;2.67;;
25707;SDS011;13567;61.652;17.100;2022-10-23T01:09:32;9.67;;;3.03;;
25707;SDS011;13567;61.652;17.100;2022-10-23T01:12:14;7.63;;;2.80;;
25707;SDS011;13567;61.652;17.100;2022-10-23T01:14:45;7.67;;;2.50;;
25707;SDS011;13567;61.652;17.100;2022-10-23T01:17:43;8.13;;;2.90;;
25707;SDS011;13567;61.652;17.100;2022-10-23T01:28:20;8.57;;;2.70;;
25707;SDS011;13567;61.652;17.100;2022-10-23T01:30:54;6.60;;;2.30;;
25707;SDS011;13567;61.652;17.100;2022-10-23T01:33:26;4.77;;;2.13;;
25707;SDS011;13567;61.652;17.100;2022-10-23T01:35:59;5.20;;;2.30;;
25707;SDS011;13567;61.652;17.100;2022-10-23T01:43:46;8.47;;;2.20;;
25707;SDS011;13567;61.652;17.100;2022-10-23T01:46:17;6.77;;;1.90;;
25707;SDS011;13567;61.652;17.100;2022-10-23T01:48:45;5.43;;;1.80;;
25707;SDS011;13567;61.652;17.100;2022-10-23T01:51:17;5.57;;;1.87;;
25707;SDS011;13567;61.652;17.100;2022-10-23T01:53:46;7.60;;;2.47;;
25707;SDS011;13567;61.652;17.100;2022-10-23T01:56:20;5.73;;;1.97;;
25707;SDS011;13567;61.652;17.100;2022-10-23T01:58:52;4.40;;;1.80;;
25707;SDS011;13567;61.652;17.100;2022-10-23T02:01:21;4.90;;;1.90;;
25707;SDS011;13567;61.652;17.100;2022-10-23T02:03:51;6.07;;;1.97;;
25707;SDS011;13567;61.652;17.100;2022-10-23T02:06:19;4.57;;;1.90;;
25707;SDS011;13567;61.652;17.100;2022-10-23T02:08:46;3.97;;;1.90;;
25707;SDS011;13567;61.652;17.100;2022-10-23T02:11:17;5.77;;;1.97;;
25707;SDS011;13567;61.652;17.100;2022-10-23T02:14:00;4.63;;;1.60;;
25707;SDS011;13567;61.652;17.100;2022-10-23T02:17:20;5.67;;;1.83;;
25707;SDS011;13567;61.652;17.100;2022-10-23T02:20:02;4.73;;;1.70;;
25707;SDS011;13567;61.652;17.100;2022-10-23T02:22:37;6.57;;;2.17;;
25707;SDS011;13567;61.652;17.100;2022-10-23T02:25:10;6.30;;;2.17;;
25707;SDS011;13567;61.652;17.100;2022-10-23T02:27:47;4.80;;;1.70;;
25707;SDS011;13567;61.652;17.100;2022-10-23T02:30:19;5.67;;;1.90;;
25707;SDS011;13567;61.652;17.100;2022-10-23T02:32:48;5.17;;;1.80;;
25707;SDS011;13567;61.652;17.100;2022-10-23T02:35:20;4.30;;;1.67;;
25707;SDS011;13567;61.652;17.100;2022-10-23T02:37:55;4.60;;;1.80;;
25707;SDS011;13567;61.652;17.100;2022-10-23T02:40:25;4.67;;;1.63;;
25707;SDS011;13567;61.652;17.100;2022-10-23T02:43:01;5.33;;;1.63;;
25707;SDS011;13567;61.652;17.100;2022-10-23T02:45:45;4.73;;;1.83;;
25707;SDS011;13567;61.652;17.100;2022-10-23T02:48:37;5.20;;;1.90;;
25707;SDS011;13567;61.652;17.100;2022-10-23T02:51:31;5.10;;;1.87;;
25707;SDS011;13567;61.652;17.100;2022-10-23T02:54:14;5.77;;;1.60;;
25707;SDS011;13567;61.652;17.100;2022-10-23T02:57:03;5.70;;;1.93;;
25707;SDS011;13567;61.652;17.100;2022-10-23T02:59:42;4.83;;;1.57;;
25707;SDS011;13567;61.652;17.100;2022-10-23T03:02:20;2.60;;;1.40;;
25707;SDS011;13567;61.652;17.100;2022-10-23T03:04:52;5.07;;;1.80;;
25707;SDS011;13567;61.652;17.100;2022-10-23T03:07:20;4.80;;;1.53;;
25707;SDS011;13567;61.652;17.100;2022-10-23T03:09:47;5.23;;;1.60;;
25707;SDS011;13567;61.652;17.100;2022-10-23T03:12:14;3.83;;;1.47;;
25707;SDS011;13567;61.652;17.100;2022-10-23T03:14:41;4.67;;;1.90;;
25707;SDS011;13567;61.652;17.100;2022-10-23T03:17:08;5.47;;;2.00;;
25707;SDS011;13567;61.652;17.100;2022-10-23T03:19:36;5.00;;;1.77;;
25707;SDS011;13567;61.652;17.100;2022-10-23T03:22:03;5.40;;;1.80;;
25707;SDS011;13567;61.652;17.100;2022-10-23T03:24:30;5.60;;;2.13;;
25707;SDS011;13567;61.652;17.100;2022-10-23T03:26:57;4.87;;;1.50;;
25707;SDS011;13567;61.652;17.100;2022-10-23T03:29:24;2.97;;;1.60;;
25707;SDS011;13567;61.652;17.100;2022-10-23T03:31:51;4.70;;;1.57;;
25707;SDS011;13567;61.652;17.100;2022-10-23T03:34:18;4.17;;;1.50;;
25707;SDS011;13567;61.652;17.100;2022-10-23T03:36:45;5.77;;;1.80;;
25707;SDS011;13567;61.652;17.100;2022-10-23T03:39:12;4.27;;;1.70;;
25707;SDS011;13567;61.652;17.100;2022-10-23T03:41:39;4.77;;;1.77;;
25707;SDS011;13567;61.652;17.100;2022-10-23T03:44:06;4.73;;;1.70;;
25707;SDS011;13567;61.652;17.100;2022-10-23T03:46:33;5.40;;;1.70;;
25707;SDS011;13567;61.652;17.100;2022-10-23T03:49:00;6.77;;;1.97;;
25707;SDS011;13567;61.652;17.100;2022-10-23T03:51:29;4.97;;;1.70;;
25707;SDS011;13567;61.652;17.100;2022-10-23T03:53:56;5.83;;;2.13;;
25707;SDS011;13567;61.652;17.100;2022-10-23T03:56:23;8.40;;;2.97;;
25707;SDS011;13567;61.652;17.100;2022-10-23T03:58:50;6.30;;;2.30;;
25707;SDS011;13567;61.652;17.100;2022-10-23T04:01:17;7.83;;;2.50;;
25707;SDS011;13567;61.652;17.100;2022-10-23T04:03:44;10.37;;;3.07;;
25707;SDS011;13567;61.652;17.100;2022-10-23T04:06:11;4.00;;;1.67;;
25707;SDS011;13567;61.652;17.100;2022-10-23T04:08:38;6.47;;;2.13;;
25707;SDS011;13567;61.652;17.100;2022-10-23T04:11:07;5.20;;;1.90;;
25707;SDS011;13567;61.652;17.100;2022-10-23T04:13:34;7.13;;;2.30;;
25707;SDS011;13567;61.652;17.100;2022-10-23T04:16:01;6.10;;;2.00;;
25707;SDS011;13567;61.652;17.100;2022-10-23T04:18:28;4.80;;;1.70;;
25707;SDS011;13567;61.652;17.100;2022-10-23T04:20:55;6.33;;;1.80;;
25707;SDS011;13567;61.652;17.100;2022-10-23T04:23:22;4.43;;;2.03;;
25707;SDS011;13567;61.652;17.100;2022-10-23T04:25:49;5.23;;;1.80;;
25707;SDS011;13567;61.652;17.100;2022-10-23T04:28:16;6.10;;;2.27;;
25707;SDS011;13567;61.652;17.100;2022-10-23T04:30:43;4.77;;;2.17;;
25707;SDS011;13567;61.652;17.100;2022-10-23T04:33:10;4.73;;;1.87;;
25707;SDS011;13567;61.652;17.100;2022-10-23T04:35:37;5.90;;;1.93;;
25707;SDS011;13567;61.652;17.100;2022-10-23T04:38:04;4.50;;;1.70;;
25707;SDS011;13567;61.652;17.100;2022-10-23T04:40:31;4.83;;;1.80;;
25707;SDS011;13567;61.652;17.100;2022-10-23T04:42:59;7.27;;;2.60;;
25707;SDS011;13567;61.652;17.100;2022-10-23T04:45:26;3.63;;;1.50;;
25707;SDS011;13567;61.652;17.100;2022-10-23T04:47:53;4.10;;;1.70;;
25707;SDS011;13567;61.652;17.100;2022-10-23T04:50:21;4.33;;;1.60;;
25707;SDS011;13567;61.652;17.100;2022-10-23T04:52:52;5.03;;;1.60;;
25707;SDS011;13567;61.652;17.100;2022-10-23T04:55:20;4.10;;;1.70;;
25707;SDS011;13567;61.652;17.100;2022-10-23T04:57:47;5.17;;;2.00;;
25707;SDS011;13567;61.652;17.100;2022-10-23T05:00:14;4.07;;;1.67;;
25707;SDS011;13567;61.652;17.100;2022-10-23T05:02:41;5.50;;;1.70;;
25707;SDS011;13567;61.652;17.100;2022-10-23T05:05:09;3.57;;;1.50;;
25707;SDS011;13567;61.652;17.100;2022-10-23T05:07:36;7.03;;;1.83;;
25707;SDS011;13567;61.652;17.100;2022-10-23T05:10:04;3.77;;;1.70;;
25707;SDS011;13567;61.652;17.100;2022-10-23T05:12:31;4.83;;;1.90;;
25707;SDS011;13567;61.652;17.100;2022-10-23T05:14:58;5.47;;;1.73;;
25707;SDS011;13567;61.652;17.100;2022-10-23T05:17:26;6.10;;;2.00;;
25707;SDS011;13567;61.652;17.100;2022-10-23T05:19:58;7.20;;;1.60;;
25707;SDS011;13567;61.652;17.100;2022-10-23T05:22:29;4.67;;;1.67;;
25707;SDS011;13567;61.652;17.100;2022-10-23T05:25:00;4.60;;;1.70;;
25707;SDS011;13567;61.652;17.100;2022-10-23T05:27:27;4.37;;;1.67;;
25707;SDS011;13567;61.652;17.100;2022-10-23T05:29:54;4.73;;;1.70;;
25707;SDS011;13567;61.652;17.100;2022-10-23T05:32:21;5.37;;;2.00;;
25707;SDS011;13567;61.652;17.100;2022-10-23T05:34:51;7.60;;;2.67;;
25707;SDS011;13567;61.652;17.100;2022-10-23T05:37:18;6.40;;;2.20;;
25707;SDS011;13567;61.652;17.100;2022-10-23T05:39:45;5.60;;;1.67;;
25707;SDS011;13567;61.652;17.100;2022-10-23T05:42:12;6.27;;;1.90;;
25707;SDS011;13567;61.652;17.100;2022-10-23T05:44:39;5.47;;;2.00;;
25707;SDS011;13567;61.652;17.100;2022-10-23T05:47:06;6.00;;;2.20;;
25707;SDS011;13567;61.652;17.100;2022-10-23T05:49:34;5.23;;;1.70;;
25707;SDS011;13567;61.652;17.100;2022-10-23T05:52:01;6.73;;;2.17;;
25707;SDS011;13567;61.652;17.100;2022-10-23T05:54:28;5.73;;;1.60;;
25707;SDS011;13567;61.652;17.100;2022-10-23T05:56:55;4.57;;;2.07;;
25707;SDS011;13567;61.652;17.100;2022-10-23T05:59:22;4.97;;;1.70;;
25707;SDS011;13567;61.652;17.100;2022-10-23T06:01:49;6.97;;;2.10;;
25707;SDS011;13567;61.652;17.100;2022-10-23T06:04:16;5.73;;;2.00;;
25707;SDS011;13567;61.652;17.100;2022-10-23T06:06:44;5.77;;;1.83;;
25707;SDS011;13567;61.652;17.100;2022-10-23T06:09:12;4.33;;;1.90;;
25707;SDS011;13567;61.652;17.100;2022-10-23T06:11:40;4.47;;;1.73;;
25707;SDS011;13567;61.652;17.100;2022-10-23T06:14:08;5.23;;;2.00;;
25707;SDS011;13567;61.652;17.100;2022-10-23T06:16:35;5.53;;;1.77;;
25707;SDS011;13567;61.652;17.100;2022-10-23T06:19:02;8.53;;;2.00;;
25707;SDS011;13567;61.652;17.100;2022-10-23T06:21:29;8.60;;;3.17;;
25707;SDS011;13567;61.652;17.100;2022-10-23T06:23:56;9.10;;;3.67;;
25707;SDS011;13567;61.652;17.100;2022-10-23T06:26:23;6.80;;;2.47;;
25707;SDS011;13567;61.652;17.100;2022-10-23T06:28:50;5.10;;;1.80;;
25707;SDS011;13567;61.652;17.100;2022-10-23T06:31:17;6.43;;;1.90;;
25707;SDS011;13567;61.652;17.100;2022-10-23T06:33:45;6.10;;;1.80;;
25707;SDS011;13567;61.652;17.100;2022-10-23T06:36:12;4.73;;;1.70;;
25707;SDS011;13567;61.652;17.100;2022-10-23T06:38:39;6.03;;;2.23;;
25707;SDS011;13567;61.652;17.100;2022-10-23T06:41:07;4.40;;;1.80;;
25707;SDS011;13567;61.652;17.100;2022-10-23T06:43:38;6.63;;;2.10;;
25707;SDS011;13567;61.652;17.100;2022-10-23T06:46:06;5.10;;;1.93;;
25707;SDS011;13567;61.652;17.100;2022-10-23T06:48:33;5.03;;;1.87;;
25707;SDS011;13567;61.652;17.100;2022-10-23T06:51:03;4.40;;;2.07;;
25707;SDS011;13567;61.652;17.100;2022-10-23T06:53:32;5.27;;;1.93;;
25707;SDS011;13567;61.652;17.100;2022-10-23T06:56:02;5.17;;;1.90;;
25707;SDS011;13567;61.652;17.100;2022-10-23T06:58:32;4.57;;;1.67;;
25707;SDS011;13567;61.652;17.100;2022-10-23T07:01:02;4.47;;;1.87;;
25707;SDS011;13567;61.652;17.100;2022-10-23T07:03:31;3.77;;;1.90;;
25707;SDS011;13567;61.652;17.100;2022-10-23T07:06:00;6.47;;;1.70;;
25707;SDS011;13567;61.652;17.100;2022-10-23T07:08:32;4.27;;;1.70;;
25707;SDS011;13567;61.652;17.100;2022-10-23T07:11:03;4.40;;;1.77;;
25707;SDS011;13567;61.652;17.100;2022-10-23T07:13:31;3.83;;;1.60;;
25707;SDS011;13567;61.652;17.100;2022-10-23T07:16:07;3.23;;;1.53;;
25707;SDS011;13567;61.652;17.100;2022-10-23T07:18:39;4.73;;;1.50;;
25707;SDS011;13567;61.652;17.100;2022-10-23T07:21:06;6.07;;;1.80;;
25707;SDS011;13567;61.652;17.100;2022-10-23T07:23:33;6.50;;;1.90;;
25707;SDS011;13567;61.652;17.100;2022-10-23T07:26:02;5.50;;;1.90;;
25707;SDS011;13567;61.652;17.100;2022-10-23T07:28:34;4.90;;;1.60;;
25707;SDS011;13567;61.652;17.100;2022-10-23T07:31:01;4.83;;;1.50;;
25707;SDS011;13567;61.652;17.100;2022-10-23T07:33:28;3.37;;;1.70;;
25707;SDS011;13567;61.652;17.100;2022-10-23T07:35:55;5.97;;;2.10;;
25707;SDS011;13567;61.652;17.100;2022-10-23T07:38:22;5.67;;;1.83;;
25707;SDS011;13567;61.652;17.100;2022-10-23T07:40:49;5.07;;;1.70;;
25707;SDS011;13567;61.652;17.100;2022-10-23T07:43:16;6.13;;;1.93;;
25707;SDS011;13567;61.652;17.100;2022-10-23T07:45:46;4.90;;;2.03;;
25707;SDS011;13567;61.652;17.100;2022-10-23T07:48:14;4.53;;;2.10;;
25707;SDS011;13567;61.652;17.100;2022-10-23T07:50:42;6.93;;;1.93;;
25707;SDS011;13567;61.652;17.100;2022-10-23T07:53:30;5.33;;;1.77;;
25707;SDS011;13567;61.652;17.100;2022-10-23T07:55:57;4.27;;;1.40;;
25707;SDS011;13567;61.652;17.100;2022-10-23T07:58:26;3.13;;;1.10;;
25707;SDS011;13567;61.652;17.100;2022-10-23T08:00:58;4.27;;;1.40;;
25707;SDS011;13567;61.652;17.100;2022-10-23T08:03:27;3.77;;;1.20;;
25707;SDS011;13567;61.652;17.100;2022-10-23T08:05:58;2.83;;;1.03;;
25707;SDS011;13567;61.652;17.100;2022-10-23T08:08:25;3.87;;;1.27;;
25707;SDS011;13567;61.652;17.100;2022-10-23T08:10:53;3.33;;;1.00;;
25707;SDS011;13567;61.652;17.100;2022-10-23T08:13:21;2.50;;;0.90;;
25707;SDS011;13567;61.652;17.100;2022-10-23T08:15:49;3.57;;;1.07;;
25707;SDS011;13567;61.652;17.100;2022-10-23T08:18:17;2.03;;;1.10;;
25707;SDS011;13567;61.652;17.100;2022-10-23T08:20:45;2.00;;;0.90;;
25707;SDS011;13567;61.652;17.100;2022-10-23T08:23:17;1.80;;;1.00;;
25707;SDS011;13567;61.652;17.100;2022-10-23T08:25:45;4.53;;;1.20;;
25707;SDS011;13567;61.652;17.100;2022-10-23T08:28:12;2.63;;;1.00;;
25707;SDS011;13567;61.652;17.100;2022-10-23T08:30:41;2.93;;;1.13;;
25707;SDS011;13567;61.652;17.100;2022-10-23T08:33:08;4.10;;;1.30;;
25707;SDS011;13567;61.652;17.100;2022-10-23T08:35:38;3.73;;;1.10;;
25707;SDS011;13567;61.652;17.100;2022-10-23T08:38:05;2.53;;;0.97;;
25707;SDS011;13567;61.652;17.100;2022-10-23T08:40:33;3.13;;;1.10;;
25707;SDS011;13567;61.652;17.100;2022-10-23T08:45:43;2.73;;;0.90;;
25707;SDS011;13567;61.652;17.100;2022-10-23T08:48:41;1.50;;;0.90;;
25707;SDS011;13567;61.652;17.100;2022-10-23T08:51:18;3.07;;;1.10;;
25707;SDS011;13567;61.652;17.100;2022-10-23T08:56:52;3.63;;;1.03;;
25707;SDS011;13567;61.652;17.100;2022-10-23T08:59:33;2.50;;;0.97;;
25707;SDS011;13567;61.652;17.100;2022-10-23T09:02:16;2.20;;;0.97;;
25707;SDS011;13567;61.652;17.100;2022-10-23T09:04:48;2.93;;;0.97;;
25707;SDS011;13567;61.652;17.100;2022-10-23T09:07:33;3.20;;;1.00;;
25707;SDS011;13567;61.652;17.100;2022-10-23T09:11:10;2.47;;;1.20;;
25707;SDS011;13567;61.652;17.100;2022-10-23T09:16:18;2.63;;;1.00;;
25707;SDS011;13567;61.652;17.100;2022-10-23T09:18:56;2.77;;;1.17;;
25707;SDS011;13567;61.652;17.100;2022-10-23T09:21:27;4.03;;;1.50;;
25707;SDS011;13567;61.652;17.100;2022-10-23T09:23:55;4.37;;;1.30;;
25707;SDS011;13567;61.652;17.100;2022-10-23T09:26:22;3.67;;;1.10;;
25707;SDS011;13567;61.652;17.100;2022-10-23T09:28:50;3.40;;;1.17;;
25707;SDS011;13567;61.652;17.100;2022-10-23T09:31:21;4.07;;;0.97;;
25707;SDS011;13567;61.652;17.100;2022-10-23T09:33:56;3.40;;;1.00;;
25707;SDS011;13567;61.652;17.100;2022-10-23T09:36:25;1.38;;;0.75;;
25707;SDS011;13567;61.652;17.100;2022-10-23T09:38:57;3.50;;;1.17;;
25707;SDS011;13567;61.652;17.100;2022-10-23T09:41:29;2.05;;;0.85;;
25707;SDS011;13567;61.652;17.100;2022-10-23T09:46:37;2.40;;;0.90;;
25707;SDS011;13567;61.652;17.100;2022-10-23T09:49:22;2.40;;;0.90;;
25707;SDS011;13567;61.652;17.100;2022-10-23T09:52:02;3.85;;;1.20;;
25707;SDS011;13567;61.652;17.100;2022-10-23T09:54:32;2.92;;;1.10;;
25707;SDS011;13567;61.652;17.100;2022-10-23T09:59:51;1.95;;;0.90;;
25707;SDS011;13567;61.652;17.100;2022-10-23T10:02:34;1.70;;;0.80;;
25707;SDS011;13567;61.652;17.100;2022-10-23T10:10:57;1.77;;;1.00;;
25707;SDS011;13567;61.652;17.100;2022-10-23T10:24:31;1.85;;;0.73;;
25707;SDS011;13567;61.652;17.100;2022-10-23T10:27:26;2.28;;;0.85;;
25707;SDS011;13567;61.652;17.100;2022-10-23T10:40:41;1.65;;;0.77;;
25707;SDS011;13567;61.652;17.100;2022-10-23T10:43:21;2.40;;;1.10;;
25707;SDS011;13567;61.652;17.100;2022-10-23T10:46:13;3.28;;;1.00;;
25707;SDS011;13567;61.652;17.100;2022-10-23T10:49:09;3.63;;;0.85;;
25707;SDS011;13567;61.652;17.100;2022-10-23T10:51:46;4.72;;;1.05;;
25707;SDS011;13567;61.652;17.100;2022-10-23T10:54:48;2.85;;;0.80;;
25707;SDS011;13567;61.652;17.100;2022-10-23T10:57:35;0.90;;;0.70;;
25707;SDS011;13567;61.652;17.100;2022-10-23T11:00:18;2.45;;;0.77;;
25707;SDS011;13567;61.652;17.100;2022-10-23T11:02:48;1.85;;;0.80;;
25707;SDS011;13567;61.652;17.100;2022-10-23T11:08:19;1.35;;;0.75;;
25707;SDS011;13567;61.652;17.100;2022-10-23T11:11:34;1.83;;;0.70;;
25707;SDS011;13567;61.652;17.100;2022-10-23T11:14:03;2.70;;;1.00;;
25707;SDS011;13567;61.652;17.100;2022-10-23T11:16:31;1.05;;;0.77;;
25707;SDS011;13567;61.652;17.100;2022-10-23T11:27:30;2.65;;;0.90;;
25707;SDS011;13567;61.652;17.100;2022-10-23T11:30:42;1.20;;;0.70;;
25707;SDS011;13567;61.652;17.100;2022-10-23T11:33:35;2.50;;;1.00;;
25707;SDS011;13567;61.652;17.100;2022-10-23T11:36:18;3.73;;;1.33;;
25707;SDS011;13567;61.652;17.100;2022-10-23T11:39:04;3.43;;;1.00;;
25707;SDS011;13567;61.652;17.100;2022-10-23T11:41:57;3.47;;;0.82;;
25707;SDS011;13567;61.652;17.100;2022-10-23T11:44:45;1.88;;;0.80;;
25707;SDS011;13567;61.652;17.100;2022-10-23T11:52:36;2.20;;;1.08;;
25707;SDS011;13567;61.652;17.100;2022-10-23T11:55:17;1.55;;;0.90;;
25707;SDS011;13567;61.652;17.100;2022-10-23T12:01:00;2.25;;;0.90;;
25707;SDS011;13567;61.652;17.100;2022-10-23T12:04:03;2.80;;;1.03;;
25707;SDS011;13567;61.652;17.100;2022-10-23T12:06:41;7.37;;;1.23;;
25707;SDS011;13567;61.652;17.100;2022-10-23T12:19:51;1.43;;;0.60;;
25707;SDS011;13567;61.652;17.100;2022-10-23T12:22:20;2.47;;;1.00;;
25707;SDS011;13567;61.652;17.100;2022-10-23T12:27:38;2.13;;;0.88;;
25707;SDS011;13567;61.652;17.100;2022-10-23T12:30:13;1.90;;;0.80;;
25707;SDS011;13567;61.652;17.100;2022-10-23T12:38:19;2.43;;;1.10;;
25707;SDS011;13567;61.652;17.100;2022-10-23T12:43:39;1.60;;;0.80;;
25707;SDS011;13567;61.652;17.100;2022-10-23T12:46:17;0.52;;;0.47;;
25707;SDS011;13567;61.652;17.100;2022-10-23T12:48:56;1.23;;;0.70;;
25707;SDS011;13567;61.652;17.100;2022-10-23T12:51:28;2.47;;;0.93;;
25707;SDS011;13567;61.652;17.100;2022-10-23T12:53:58;1.33;;;1.00;;
25707;SDS011;13567;61.652;17.100;2022-10-23T12:56:25;3.70;;;0.93;;
25707;SDS011;13567;61.652;17.100;2022-10-23T12:58:58;2.23;;;0.73;;
25707;SDS011;13567;61.652;17.100;2022-10-23T13:01:30;2.30;;;0.80;;
25707;SDS011;13567;61.652;17.100;2022-10-23T13:04:41;2.83;;;0.60;;
25707;SDS011;13567;61.652;17.100;2022-10-23T13:06:53;2.95;;;0.70;;
25707;SDS011;13567;61.652;17.100;2022-10-23T13:11:51;4.82;;;1.08;;
25707;SDS011;13567;61.652;17.100;2022-10-23T13:14:27;3.00;;;0.90;;
25707;SDS011;13567;61.652;17.100;2022-10-23T13:17:02;2.13;;;0.90;;
25707;SDS011;13567;61.652;17.100;2022-10-23T13:19:30;1.67;;;0.70;;
25707;SDS011;13567;61.652;17.100;2022-10-23T13:21:58;1.93;;;0.70;;
25707;SDS011;13567;61.652;17.100;2022-10-23T13:24:26;2.13;;;0.80;;
25707;SDS011;13567;61.652;17.100;2022-10-23T13:26:55;1.97;;;0.93;;
25707;SDS011;13567;61.652;17.100;2022-10-23T13:29:26;2.23;;;1.00;;
25707;SDS011;13567;61.652;17.100;2022-10-23T13:31:56;2.53;;;0.90;;
25707;SDS011;13567;61.652;17.100;2022-10-23T13:34:34;1.70;;;0.90;;
25707;SDS011;13567;61.652;17.100;2022-10-23T13:37:02;1.33;;;0.80;;
25707;SDS011;13567;61.652;17.100;2022-10-23T13:40:05;2.27;;;1.00;;
25707;SDS011;13567;61.652;17.100;2022-10-23T13:42:48;2.57;;;0.90;;
25707;SDS011;13567;61.652;17.100;2022-10-23T13:45:17;3.13;;;0.97;;
25707;SDS011;13567;61.652;17.100;2022-10-23T13:47:47;2.27;;;0.87;;
25707;SDS011;13567;61.652;17.100;2022-10-23T13:50:14;2.23;;;0.90;;
25707;SDS011;13567;61.652;17.100;2022-10-23T13:52:41;3.30;;;1.23;;
25707;SDS011;13567;61.652;17.100;2022-10-23T13:55:19;1.43;;;0.90;;
25707;SDS011;13567;61.652;17.100;2022-10-23T13:57:50;3.10;;;2.00;;
25707;SDS011;13567;61.652;17.100;2022-10-23T14:00:18;1.63;;;0.77;;
25707;SDS011;13567;61.652;17.100;2022-10-23T14:02:45;3.07;;;0.90;;
25707;SDS011;13567;61.652;17.100;2022-10-23T14:05:12;1.33;;;0.70;;
25707;SDS011;13567;61.652;17.100;2022-10-23T14:07:39;1.60;;;0.70;;
25707;SDS011;13567;61.652;17.100;2022-10-23T14:10:06;1.53;;;0.60;;
25707;SDS011;13567;61.652;17.100;2022-10-23T14:12:40;1.67;;;0.80;;
25707;SDS011;13567;61.652;17.100;2022-10-23T14:15:08;1.43;;;0.70;;
25707;SDS011;13567;61.652;17.100;2022-10-23T14:17:36;2.83;;;0.97;;
25707;SDS011;13567;61.652;17.100;2022-10-23T14:20:04;4.93;;;1.30;;
25707;SDS011;13567;61.652;17.100;2022-10-23T14:22:31;3.03;;;1.50;;
25707;SDS011;13567;61.652;17.100;2022-10-23T14:24:58;5.63;;;1.60;;
25707;SDS011;13567;61.652;17.100;2022-10-23T14:27:25;5.07;;;1.63;;
25707;SDS011;13567;61.652;17.100;2022-10-23T14:29:53;4.30;;;1.70;;
25707;SDS011;13567;61.652;17.100;2022-10-23T14:32:20;3.47;;;1.30;;
25707;SDS011;13567;61.652;17.100;2022-10-23T14:34:50;4.10;;;1.10;;
25707;SDS011;13567;61.652;17.100;2022-10-23T14:37:19;2.73;;;1.10;;
25707;SDS011;13567;61.652;17.100;2022-10-23T14:39:47;2.30;;;0.90;;
25707;SDS011;13567;61.652;17.100;2022-10-23T14:42:15;3.77;;;1.13;;
25707;SDS011;13567;61.652;17.100;2022-10-23T14:44:43;6.93;;;2.27;;
25707;SDS011;13567;61.652;17.100;2022-10-23T14:47:10;6.90;;;2.53;;
25707;SDS011;13567;61.652;17.100;2022-10-23T14:49:37;5.97;;;2.30;;
25707;SDS011;13567;61.652;17.100;2022-10-23T14:52:05;5.77;;;1.60;;
25707;SDS011;13567;61.652;17.100;2022-10-23T14:54:32;5.70;;;1.80;;
25707;SDS011;13567;61.652;17.100;2022-10-23T14:57:01;3.87;;;1.80;;
25707;SDS011;13567;61.652;17.100;2022-10-23T14:59:29;6.53;;;2.60;;
25707;SDS011;13567;61.652;17.100;2022-10-23T15:01:56;7.83;;;2.80;;
25707;SDS011;13567;61.652;17.100;2022-10-23T15:04:23;5.37;;;2.10;;
25707;SDS011;13567;61.652;17.100;2022-10-23T15:06:50;5.33;;;2.10;;
25707;SDS011;13567;61.652;17.100;2022-10-23T15:09:17;3.70;;;1.70;;
25707;SDS011;13567;61.652;17.100;2022-10-23T15:11:45;7.40;;;2.27;;
25707;SDS011;13567;61.652;17.100;2022-10-23T15:14:13;5.00;;;1.60;;
25707;SDS011;13567;61.652;17.100;2022-10-23T15:16:40;6.20;;;2.07;;
25707;SDS011;13567;61.652;17.100;2022-10-23T15:19:08;5.17;;;1.87;;
25707;SDS011;13567;61.652;17.100;2022-10-23T15:21:42;5.10;;;2.00;;
25707;SDS011;13567;61.652;17.100;2022-10-23T15:24:09;5.07;;;2.23;;
25707;SDS011;13567;61.652;17.100;2022-10-23T15:26:36;5.37;;;2.10;;
25707;SDS011;13567;61.652;17.100;2022-10-23T15:29:04;5.33;;;1.90;;
25707;SDS011;13567;61.652;17.100;2022-10-23T15:34:03;4.47;;;1.90;;
25707;SDS011;13567;61.652;17.100;2022-10-23T15:36:31;7.33;;;2.70;;
25707;SDS011;13567;61.652;17.100;2022-10-23T15:38:58;4.57;;;1.70;;
25707;SDS011;13567;61.652;17.100;2022-10-23T15:41:29;6.23;;;1.90;;
25707;SDS011;13567;61.652;17.100;2022-10-23T15:43:57;5.03;;;1.90;;
25707;SDS011;13567;61.652;17.100;2022-10-23T15:46:25;3.63;;;1.37;;
25707;SDS011;13567;61.652;17.100;2022-10-23T15:48:52;2.40;;;1.17;;
25707;SDS011;13567;61.652;17.100;2022-10-23T15:51:19;0.73;;;0.60;;
25707;SDS011;13567;61.652;17.100;2022-10-23T15:53:46;2.17;;;0.83;;
25707;SDS011;13567;61.652;17.100;2022-10-23T15:56:13;2.30;;;1.00;;
25707;SDS011;13567;61.652;17.100;2022-10-23T15:58:40;1.40;;;0.80;;
25707;SDS011;13567;61.652;17.100;2022-10-23T16:01:08;3.90;;;1.13;;
25707;SDS011;13567;61.652;17.100;2022-10-23T16:03:36;2.13;;;0.80;;
25707;SDS011;13567;61.652;17.100;2022-10-23T16:06:04;3.57;;;1.00;;
25707;SDS011;13567;61.652;17.100;2022-10-23T16:08:36;3.87;;;1.50;;
25707;SDS011;13567;61.652;17.100;2022-10-23T16:11:04;3.63;;;1.07;;
25707;SDS011;13567;61.652;17.100;2022-10-23T16:13:48;4.70;;;1.40;;
25707;SDS011;13567;61.652;17.100;2022-10-23T16:16:16;2.63;;;1.30;;
25707;SDS011;13567;61.652;17.100;2022-10-23T16:18:43;3.07;;;1.30;;
25707;SDS011;13567;61.652;17.100;2022-10-23T16:21:15;3.77;;;1.50;;
25707;SDS011;13567;61.652;17.100;2022-10-23T16:23:45;2.70;;;1.27;;
25707;SDS011;13567;61.652;17.100;2022-10-23T16:26:12;6.40;;;1.70;;
25707;SDS011;13567;61.652;17.100;2022-10-23T16:28:40;4.40;;;1.60;;
25707;SDS011;13567;61.652;17.100;2022-10-23T16:31:13;3.33;;;1.47;;
25707;SDS011;13567;61.652;17.100;2022-10-23T16:33:46;3.73;;;1.53;;
25707;SDS011;13567;61.652;17.100;2022-10-23T16:36:14;5.37;;;1.30;;
25707;SDS011;13567;61.652;17.100;2022-10-23T16:38:41;5.27;;;1.40;;
25707;SDS011;13567;61.652;17.100;2022-10-23T16:41:08;4.63;;;1.60;;
25707;SDS011;13567;61.652;17.100;2022-10-23T16:43:35;3.03;;;1.17;;